Time;durP1;ratioP1;P1;durP2;ratioP2;P2;SDS_P1;SDS_P2;PMS_P1;PMS_P2;Temp;Humidity;BMP_temperature;BMP_pressure;BME280_temperature;BME280_humidity;BME280_pressure;Samples;Min_cycle;Max_cycle;Signal;HPM_P1;HPM_P2
2023/08/27 00:00:10;;;;;;;3.90;2.60;;;;;;;;;;5082470;28;20452;-80
2023/08/27 00:02:38;;;;;;;6.60;3.10;;;;;;;;;;5082214;28;20466;-80
2023/08/27 00:05:07;;;;;;;4.50;2.87;;;;;;;;;;5083891;28;20463;-80
2023/08/27 00:07:36;;;;;;;3.03;2.50;;;;;;;;;;5083321;28;20521;-79
2023/08/27 00:10:08;;;;;;;6.30;3.43;;;;;;;;;;5080678;28;20940;-80
2023/08/27 00:12:35;;;;;;;4.50;2.23;;;;;;;;;;5086162;28;20475;-80
2023/08/27 00:15:03;;;;;;;5.13;3.00;;;;;;;;;;5082588;28;20455;-79
2023/08/27 00:17:31;;;;;;;4.53;3.10;;;;;;;;;;5085922;28;20737;-79
2023/08/27 00:19:58;;;;;;;3.27;2.27;;;;;;;;;;5083067;28;20456;-80
2023/08/27 00:22:25;;;;;;;9.13;3.30;;;;;;;;;;5085252;28;20457;-79
2023/08/27 00:24:54;;;;;;;4.43;2.53;;;;;;;;;;5082818;28;20920;-80
2023/08/27 00:27:22;;;;;;;3.40;2.90;;;;;;;;;;5086244;28;20432;-80
2023/08/27 00:29:49;;;;;;;4.37;2.93;;;;;;;;;;5082935;28;20457;-80
2023/08/27 00:32:20;;;;;;;5.67;3.47;;;;;;;;;;5084561;28;20437;-79
2023/08/27 00:34:47;;;;;;;3.50;2.40;;;;;;;;;;5081508;28;20492;-80
2023/08/27 00:37:15;;;;;;;5.37;2.90;;;;;;;;;;5082848;28;20452;-80
2023/08/27 00:39:42;;;;;;;6.50;3.30;;;;;;;;;;5081217;28;20975;-80
2023/08/27 00:42:14;;;;;;;3.87;2.37;;;;;;;;;;5084768;28;20433;-79
2023/08/27 00:44:42;;;;;;;4.83;3.07;;;;;;;;;;5084199;28;20482;-80
2023/08/27 00:47:10;;;;;;;3.80;2.87;;;;;;;;;;5088851;28;20457;-78
2023/08/27 00:49:37;;;;;;;3.80;2.63;;;;;;;;;;5089490;28;20897;-80
2023/08/27 00:52:06;;;;;;;3.97;2.97;;;;;;;;;;5089712;28;20452;-80
2023/08/27 00:54:34;;;;;;;4.07;3.10;;;;;;;;;;5088549;28;20457;-80
2023/08/27 00:57:07;;;;;;;3.67;2.77;;;;;;;;;;5090247;28;20552;-79
2023/08/27 00:59:37;;;;;;;4.50;3.03;;;;;;;;;;5088960;28;20484;-79
2023/08/27 01:02:04;;;;;;;3.27;2.40;;;;;;;;;;5089615;28;20460;-80
2023/08/27 01:04:32;;;;;;;4.67;2.93;;;;;;;;;;5086915;28;20460;-79
2023/08/27 01:07:02;;;;;;;3.27;2.97;;;;;;;;;;5087523;28;20464;-80
2023/08/27 01:09:33;;;;;;;3.37;2.80;;;;;;;;;;5089566;28;20440;-79
2023/08/27 01:12:04;;;;;;;4.77;2.83;;;;;;;;;;5089740;28;20459;-80
2023/08/27 01:14:34;;;;;;;4.77;3.20;;;;;;;;;;5087100;28;20793;-79
2023/08/27 01:17:05;;;;;;;7.60;2.80;;;;;;;;;;5087495;28;20520;-79
2023/08/27 01:19:33;;;;;;;5.70;3.73;;;;;;;;;;5087563;28;20557;-80
2023/08/27 01:22:02;;;;;;;5.27;3.57;;;;;;;;;;5088947;28;20456;-80
2023/08/27 01:24:29;;;;;;;3.43;2.90;;;;;;;;;;5086148;28;20874;-80
2023/08/27 01:27:04;;;;;;;5.60;3.23;;;;;;;;;;5085899;28;20482;-80
2023/08/27 01:29:33;;;;;;;3.90;2.97;;;;;;;;;;5084984;28;20452;-79
2023/08/27 01:32:04;;;;;;;4.20;2.67;;;;;;;;;;5084726;28;20509;-80
2023/08/27 01:34:32;;;;;;;5.63;3.33;;;;;;;;;;5085323;28;20873;-80
2023/08/27 01:37:00;;;;;;;6.00;3.80;;;;;;;;;;5085040;28;20523;-81
2023/08/27 01:39:28;;;;;;;4.47;3.77;;;;;;;;;;5086710;28;20468;-78
2023/08/27 01:41:56;;;;;;;7.80;4.03;;;;;;;;;;5084756;28;20957;-80
2023/08/27 01:44:23;;;;;;;5.10;3.53;;;;;;;;;;5087565;28;20441;-79
2023/08/27 01:46:51;;;;;;;10.83;3.73;;;;;;;;;;5085102;28;20453;-77
2023/08/27 01:49:18;;;;;;;8.67;3.93;;;;;;;;;;5087586;28;21051;-80
2023/08/27 01:51:46;;;;;;;4.60;3.50;;;;;;;;;;5085512;28;20502;-80
2023/08/27 01:54:13;;;;;;;5.20;3.50;;;;;;;;;;5084748;28;20475;-80
2023/08/27 01:56:42;;;;;;;5.13;4.00;;;;;;;;;;5085068;28;20488;-79
2023/08/27 01:59:09;;;;;;;6.53;4.33;;;;;;;;;;5085680;28;20548;-81
2023/08/27 02:01:37;;;;;;;4.00;3.20;;;;;;;;;;5084420;28;20441;-80
2023/08/27 02:04:04;;;;;;;6.73;5.20;;;;;;;;;;5086135;28;20455;-78
2023/08/27 02:06:32;;;;;;;7.80;3.27;;;;;;;;;;5083263;28;20466;-80
2023/08/27 02:08:59;;;;;;;4.13;3.70;;;;;;;;;;5085778;28;20705;-80
2023/08/27 02:11:27;;;;;;;5.60;3.70;;;;;;;;;;5084791;28;20819;-80
2023/08/27 02:13:55;;;;;;;4.90;3.77;;;;;;;;;;5088039;28;20536;-80
2023/08/27 02:16:23;;;;;;;6.43;3.57;;;;;;;;;;5087450;28;20732;-79
2023/08/27 02:18:50;;;;;;;5.53;3.63;;;;;;;;;;5087454;28;20511;-80
2023/08/27 02:21:18;;;;;;;4.97;3.87;;;;;;;;;;5090112;28;20638;-80
2023/08/27 02:23:46;;;;;;;5.83;3.83;;;;;;;;;;5089200;28;20464;-79
2023/08/27 02:26:13;;;;;;;6.90;4.17;;;;;;;;;;5090003;28;20456;-78
2023/08/27 02:28:41;;;;;;;6.67;3.50;;;;;;;;;;5088475;28;20461;-81
2023/08/27 02:31:10;;;;;;;6.70;4.60;;;;;;;;;;5090326;28;20471;-80
2023/08/27 02:33:37;;;;;;;6.17;4.63;;;;;;;;;;5085715;28;20444;-78
2023/08/27 02:36:05;;;;;;;5.00;4.17;;;;;;;;;;5089632;28;20432;-78
2023/08/27 02:38:32;;;;;;;4.33;3.57;;;;;;;;;;5087690;28;20452;-79
2023/08/27 02:41:00;;;;;;;4.37;3.97;;;;;;;;;;5088045;28;20457;-78
2023/08/27 02:43:28;;;;;;;7.80;5.73;;;;;;;;;;5087881;28;20440;-79
2023/08/27 02:45:55;;;;;;;4.13;3.43;;;;;;;;;;5085863;28;20467;-80
2023/08/27 02:48:24;;;;;;;4.40;3.70;;;;;;;;;;5088800;28;20428;-80
2023/08/27 02:50:52;;;;;;;4.50;3.73;;;;;;;;;;5095064;22;20885;-79
2023/08/27 02:53:19;;;;;;;4.20;3.80;;;;;;;;;;5086980;28;20448;-80
2023/08/27 02:55:47;;;;;;;4.43;4.00;;;;;;;;;;5085205;28;20604;-78
2023/08/27 02:58:14;;;;;;;9.93;3.70;;;;;;;;;;5086433;28;20479;-79
2023/08/27 03:00:42;;;;;;;4.17;3.77;;;;;;;;;;5085940;28;20745;-79
2023/08/27 03:03:09;;;;;;;4.50;4.07;;;;;;;;;;5088888;28;20460;-79
2023/08/27 03:05:38;;;;;;;4.90;3.73;;;;;;;;;;5089233;28;20440;-81
2023/08/27 03:08:06;;;;;;;4.73;4.17;;;;;;;;;;5089381;28;20721;-80
2023/08/27 03:10:33;;;;;;;4.27;3.87;;;;;;;;;;5088113;28;20425;-81
2023/08/27 03:13:01;;;;;;;4.60;3.77;;;;;;;;;;5086007;28;20448;-80
2023/08/27 03:15:28;;;;;;;6.53;4.07;;;;;;;;;;5087255;28;20464;-81
2023/08/27 03:17:56;;;;;;;5.83;4.40;;;;;;;;;;5087789;28;20457;-80
2023/08/27 03:20:23;;;;;;;4.57;3.90;;;;;;;;;;5086579;28;20520;-80
2023/08/27 03:22:52;;;;;;;6.00;3.87;;;;;;;;;;5084824;28;20458;-80
2023/08/27 03:25:20;;;;;;;5.63;3.97;;;;;;;;;;5085898;28;20444;-81
2023/08/27 03:27:47;;;;;;;7.80;3.83;;;;;;;;;;5084088;28;20510;-80
2023/08/27 03:30:24;;;;;;;4.37;3.70;;;;;;;;;;5086933;28;20455;-80
2023/08/27 03:32:51;;;;;;;4.50;3.97;;;;;;;;;;5086829;28;20440;-79
2023/08/27 03:35:19;;;;;;;7.67;4.03;;;;;;;;;;5085588;28;20521;-79
2023/08/27 03:37:46;;;;;;;5.33;4.80;;;;;;;;;;5085887;28;20865;-79
2023/08/27 03:40:20;;;;;;;7.10;4.07;;;;;;;;;;5084433;28;20511;-81
2023/08/27 03:42:47;;;;;;;4.40;4.00;;;;;;;;;;5088052;28;20826;-78
2023/08/27 03:45:18;;;;;;;15.03;4.43;;;;;;;;;;5084063;28;20452;-79
2023/08/27 03:47:45;;;;;;;4.73;4.20;;;;;;;;;;5086365;28;20457;-80
2023/08/27 03:50:16;;;;;;;4.07;3.67;;;;;;;;;;5085709;28;20452;-79
2023/08/27 03:52:43;;;;;;;4.47;4.00;;;;;;;;;;5085488;28;20545;-79
2023/08/27 03:55:11;;;;;;;10.33;4.40;;;;;;;;;;5084866;28;20452;-79
2023/08/27 03:57:40;;;;;;;5.20;4.70;;;;;;;;;;5085466;28;20452;-80
2023/08/27 04:00:09;;;;;;;5.17;4.23;;;;;;;;;;5086787;28;20488;-80
2023/08/27 04:02:37;;;;;;;4.97;3.77;;;;;;;;;;5086851;28;20448;-79
2023/08/27 04:05:06;;;;;;;10.23;4.40;;;;;;;;;;5086261;28;20457;-78
2023/08/27 04:07:33;;;;;;;5.80;4.30;;;;;;;;;;5084433;28;20453;-80
2023/08/27 04:10:08;;;;;;;4.83;4.10;;;;;;;;;;5087250;28;20477;-81
2023/08/27 04:12:36;;;;;;;4.73;4.23;;;;;;;;;;5082779;28;20448;-80
2023/08/27 04:15:05;;;;;;;5.10;4.37;;;;;;;;;;5086125;28;20448;-80
2023/08/27 04:17:32;;;;;;;7.80;4.83;;;;;;;;;;5085265;28;20443;-80
2023/08/27 04:20:00;;;;;;;5.30;4.20;;;;;;;;;;5089318;28;20502;-79
2023/08/27 04:22:30;;;;;;;4.73;3.90;;;;;;;;;;5090071;28;20440;-79
2023/08/27 04:24:58;;;;;;;5.10;4.40;;;;;;;;;;5086594;28;20452;-80
2023/08/27 04:27:25;;;;;;;5.70;4.70;;;;;;;;;;5087780;28;20445;-80
2023/08/27 04:29:56;;;;;;;5.30;4.80;;;;;;;;;;5087665;28;20452;-79
2023/08/27 04:32:25;;;;;;;4.90;4.40;;;;;;;;;;5088186;28;20511;-80
2023/08/27 04:34:52;;;;;;;6.13;4.40;;;;;;;;;;5089079;28;20456;-79
2023/08/27 04:37:20;;;;;;;5.50;4.63;;;;;;;;;;5088051;28;20441;-79
2023/08/27 04:39:47;;;;;;;5.20;4.63;;;;;;;;;;5086789;28;20545;-79
2023/08/27 04:42:15;;;;;;;4.87;4.40;;;;;;;;;;5089528;28;20608;-79
2023/08/27 04:44:42;;;;;;;5.07;4.53;;;;;;;;;;5089218;28;20468;-80
2023/08/27 04:47:10;;;;;;;4.40;3.80;;;;;;;;;;5089657;28;20551;-79
2023/08/27 04:49:38;;;;;;;5.37;4.17;;;;;;;;;;5092446;28;20512;-78
2023/08/27 04:52:06;;;;;;;6.80;4.33;;;;;;;;;;5091039;28;20488;-80
2023/08/27 04:54:33;;;;;;;4.90;4.40;;;;;;;;;;5090179;28;20461;-78
2023/08/27 04:57:02;;;;;;;4.53;4.13;;;;;;;;;;5091054;28;20479;-79
2023/08/27 04:59:29;;;;;;;5.90;4.83;;;;;;;;;;5089620;28;20472;-81
2023/08/27 05:01:59;;;;;;;5.70;4.03;;;;;;;;;;5091999;28;20463;-80
2023/08/27 05:04:28;;;;;;;6.23;5.10;;;;;;;;;;5088878;28;20483;-80
2023/08/27 05:06:56;;;;;;;5.23;4.23;;;;;;;;;;5090261;28;20471;-80
2023/08/27 05:09:24;;;;;;;6.00;4.23;;;;;;;;;;5088936;28;20468;-80
2023/08/27 05:11:51;;;;;;;4.40;4.00;;;;;;;;;;5089646;28;20448;-80
2023/08/27 05:14:19;;;;;;;7.10;4.70;;;;;;;;;;5088521;28;20452;-80
2023/08/27 05:16:46;;;;;;;5.10;4.60;;;;;;;;;;5088020;28;20479;-79
2023/08/27 05:19:14;;;;;;;5.10;4.50;;;;;;;;;;5088103;28;20463;-79
2023/08/27 05:21:41;;;;;;;3.90;3.50;;;;;;;;;;5089739;28;20440;-79
2023/08/27 05:24:10;;;;;;;4.60;3.97;;;;;;;;;;5088564;28;20555;-79
2023/08/27 05:26:38;;;;;;;6.93;3.90;;;;;;;;;;5088206;28;20453;-79
2023/08/27 05:29:05;;;;;;;4.60;3.67;;;;;;;;;;5088596;28;20482;-80
2023/08/27 05:31:32;;;;;;;5.57;4.27;;;;;;;;;;5087923;28;20484;-80
2023/08/27 05:34:00;;;;;;;5.93;4.87;;;;;;;;;;5087257;28;20483;-80
2023/08/27 05:36:27;;;;;;;6.00;4.33;;;;;;;;;;5088183;28;20535;-79
2023/08/27 05:38:54;;;;;;;5.60;3.47;;;;;;;;;;5090823;28;20441;-79
2023/08/27 05:41:23;;;;;;;4.50;4.10;;;;;;;;;;5086016;28;20565;-78
2023/08/27 05:43:51;;;;;;;5.30;4.60;;;;;;;;;;5101612;28;20495;-78
2023/08/27 05:46:18;;;;;;;4.57;4.17;;;;;;;;;;5106370;28;20451;-79
2023/08/27 05:48:46;;;;;;;6.53;4.47;;;;;;;;;;5107305;28;20451;-80
2023/08/27 05:51:13;;;;;;;5.00;4.60;;;;;;;;;;5107980;28;20832;-80
2023/08/27 05:53:40;;;;;;;5.77;5.07;;;;;;;;;;5105124;28;20550;-79
2023/08/27 05:56:08;;;;;;;5.83;5.03;;;;;;;;;;5109132;28;20554;-79
2023/08/27 05:58:37;;;;;;;6.23;4.83;;;;;;;;;;5108868;28;20451;-80
2023/08/27 06:01:04;;;;;;;6.00;5.10;;;;;;;;;;5107260;28;20497;-80
2023/08/27 06:03:32;;;;;;;4.80;4.40;;;;;;;;;;5107873;28;20558;-81
2023/08/27 06:05:59;;;;;;;6.47;4.47;;;;;;;;;;5106215;28;20452;-80
2023/08/27 06:08:27;;;;;;;5.73;5.17;;;;;;;;;;5109019;28;20444;-80
2023/08/27 06:10:54;;;;;;;5.03;4.50;;;;;;;;;;5106493;28;20467;-78
2023/08/27 06:13:22;;;;;;;5.47;3.90;;;;;;;;;;5107398;28;20478;-79
2023/08/27 06:15:51;;;;;;;5.30;4.77;;;;;;;;;;5106145;28;20455;-80
2023/08/27 06:18:18;;;;;;;6.33;4.60;;;;;;;;;;5105749;28;20536;-81
2023/08/27 06:20:46;;;;;;;5.67;4.70;;;;;;;;;;5103504;28;20570;-79
2023/08/27 06:23:14;;;;;;;5.37;4.83;;;;;;;;;;5104563;28;20471;-80
2023/08/27 06:25:41;;;;;;;12.03;4.60;;;;;;;;;;5108839;28;20460;-79
2023/08/27 06:28:09;;;;;;;5.47;4.97;;;;;;;;;;5108391;28;20440;-80
2023/08/27 06:30:41;;;;;;;5.40;4.90;;;;;;;;;;5106624;28;20439;-79
2023/08/27 06:33:11;;;;;;;6.10;5.27;;;;;;;;;;5103921;28;20834;-79
2023/08/27 06:35:39;;;;;;;8.00;5.37;;;;;;;;;;5103007;28;20456;-79
2023/08/27 06:38:06;;;;;;;10.20;4.87;;;;;;;;;;5105918;28;20448;-79
2023/08/27 06:40:33;;;;;;;5.30;4.80;;;;;;;;;;5103297;28;20490;-81
2023/08/27 06:43:01;;;;;;;4.90;4.07;;;;;;;;;;5105095;28;20499;-79
2023/08/27 06:45:28;;;;;;;4.80;4.30;;;;;;;;;;5104617;28;20550;-80
2023/08/27 06:47:56;;;;;;;4.27;3.87;;;;;;;;;;5102574;28;20877;-78
2023/08/27 06:50:25;;;;;;;5.10;4.60;;;;;;;;;;5102628;28;20531;-79
2023/08/27 06:52:52;;;;;;;5.83;4.80;;;;;;;;;;5102769;28;21007;-79
2023/08/27 06:55:20;;;;;;;5.17;3.67;;;;;;;;;;5104464;28;20972;-79
2023/08/27 06:57:47;;;;;;;5.33;4.20;;;;;;;;;;5104564;28;20463;-79
2023/08/27 07:00:18;;;;;;;5.77;4.70;;;;;;;;;;5104577;28;20505;-79
2023/08/27 07:02:46;;;;;;;4.13;3.70;;;;;;;;;;5105377;28;20454;-79
2023/08/27 07:05:13;;;;;;;9.77;4.07;;;;;;;;;;5103543;28;20432;-79
2023/08/27 07:07:42;;;;;;;4.50;3.97;;;;;;;;;;5101761;28;20456;-79
2023/08/27 07:10:11;;;;;;;4.63;3.93;;;;;;;;;;5104245;28;20762;-79
2023/08/27 07:12:39;;;;;;;4.37;3.70;;;;;;;;;;5103374;28;20551;-79
2023/08/27 07:15:07;;;;;;;5.13;3.77;;;;;;;;;;5102037;28;20808;-78
2023/08/27 07:17:36;;;;;;;7.47;4.10;;;;;;;;;;5101823;28;20424;-78
2023/08/27 07:20:09;;;;;;;4.87;4.43;;;;;;;;;;5102629;28;20754;-79
2023/08/27 07:22:36;;;;;;;4.00;3.60;;;;;;;;;;5104028;28;20617;-78
2023/08/27 07:25:06;;;;;;;5.53;3.60;;;;;;;;;;5104130;28;20458;-79
2023/08/27 07:27:34;;;;;;;4.77;4.30;;;;;;;;;;5101065;28;20479;-78
2023/08/27 07:30:09;;;;;;;4.10;3.70;;;;;;;;;;5101402;28;20435;-79
2023/08/27 07:32:39;;;;;;;5.90;3.80;;;;;;;;;;5102720;28;20443;-80
2023/08/27 07:35:07;;;;;;;4.60;4.07;;;;;;;;;;5101417;28;20486;-80
2023/08/27 07:37:34;;;;;;;3.67;3.30;;;;;;;;;;5101118;28;20460;-79
2023/08/27 07:40:09;;;;;;;5.83;3.50;;;;;;;;;;5101689;28;20451;-79
2023/08/27 07:42:38;;;;;;;4.43;3.50;;;;;;;;;;5103941;28;20488;-79
2023/08/27 07:45:08;;;;;;;5.03;3.87;;;;;;;;;;5103718;28;20753;-78
2023/08/27 07:47:42;;;;;;;4.97;3.67;;;;;;;;;;5105445;28;20456;-80
2023/08/27 07:50:09;;;;;;;4.50;4.10;;;;;;;;;;5103732;28;20761;-80
2023/08/27 07:52:37;;;;;;;7.00;4.00;;;;;;;;;;5106195;28;20540;-79
2023/08/27 07:55:05;;;;;;;3.90;3.53;;;;;;;;;;5106732;28;20439;-78
2023/08/27 07:57:32;;;;;;;4.10;3.57;;;;;;;;;;5106743;28;20534;-79
2023/08/27 08:00:09;;;;;;;3.30;2.90;;;;;;;;;;5108451;28;20444;-80
2023/08/27 08:02:36;;;;;;;5.37;3.60;;;;;;;;;;5106137;28;20459;-79
2023/08/27 08:05:04;;;;;;;3.50;3.10;;;;;;;;;;5106184;28;20454;-79
2023/08/27 08:07:33;;;;;;;5.93;3.77;;;;;;;;;;5106662;28;20837;-79
2023/08/27 08:10:00;;;;;;;4.00;3.57;;;;;;;;;;5103159;28;20520;-79
2023/08/27 08:12:28;;;;;;;6.80;3.50;;;;;;;;;;5104087;28;20908;-77
2023/08/27 08:14:56;;;;;;;6.10;3.17;;;;;;;;;;5102200;28;20864;-80
2023/08/27 08:17:25;;;;;;;5.30;3.27;;;;;;;;;;5102469;28;20479;-79
2023/08/27 08:19:53;;;;;;;3.63;2.70;;;;;;;;;;5108535;28;20486;-79
2023/08/27 08:22:21;;;;;;;6.03;3.20;;;;;;;;;;5104209;28;20611;-80
2023/08/27 08:24:49;;;;;;;4.50;3.80;;;;;;;;;;5105165;28;20515;-78
2023/08/27 08:27:20;;;;;;;3.47;3.10;;;;;;;;;;5100991;28;20455;-79
2023/08/27 08:29:48;;;;;;;4.90;3.17;;;;;;;;;;5104059;28;20505;-79
2023/08/27 08:32:16;;;;;;;4.90;3.13;;;;;;;;;;5102696;28;20475;-79
2023/08/27 08:34:48;;;;;;;3.30;2.90;;;;;;;;;;5104070;28;20880;-78
2023/08/27 08:37:16;;;;;;;4.97;2.70;;;;;;;;;;5102927;28;20883;-78
2023/08/27 08:39:43;;;;;;;4.30;2.80;;;;;;;;;;5100671;28;20463;-78
2023/08/27 08:42:13;;;;;;;4.90;3.20;;;;;;;;;;5104408;28;20483;-80
2023/08/27 08:44:52;;;;;;;6.20;3.83;;;;;;;;;;5103671;28;20510;-79
2023/08/27 08:47:21;;;;;;;4.20;2.73;;;;;;;;;;5102206;28;21273;-78
2023/08/27 08:49:51;;;;;;;3.70;2.73;;;;;;;;;;5105240;28;20440;-79
2023/08/27 08:52:20;;;;;;;6.90;2.73;;;;;;;;;;5106759;28;20472;-79
2023/08/27 08:54:49;;;;;;;4.93;3.10;;;;;;;;;;5103646;28;20444;-79
2023/08/27 08:57:17;;;;;;;3.83;2.90;;;;;;;;;;5103597;28;20447;-80
2023/08/27 08:59:44;;;;;;;3.03;2.33;;;;;;;;;;5105737;28;20454;-80
2023/08/27 09:02:13;;;;;;;5.00;2.87;;;;;;;;;;5103704;28;20479;-78
2023/08/27 09:04:42;;;;;;;7.10;3.70;;;;;;;;;;5104897;28;20448;-78
2023/08/27 09:07:11;;;;;;;3.93;3.07;;;;;;;;;;5102711;28;20783;-80
2023/08/27 09:09:39;;;;;;;5.37;3.33;;;;;;;;;;5106381;28;20439;-79
2023/08/27 09:12:09;;;;;;;7.87;3.53;;;;;;;;;;5104213;28;20444;-78
2023/08/27 09:14:37;;;;;;;2.47;1.83;;;;;;;;;;5106902;28;20470;-80
2023/08/27 09:17:05;;;;;;;5.90;2.50;;;;;;;;;;5104187;28;20452;-80
2023/08/27 09:19:33;;;;;;;3.70;2.23;;;;;;;;;;5104230;28;20456;-79
2023/08/27 09:22:04;;;;;;;4.27;1.57;;;;;;;;;;5104190;28;20525;-79
2023/08/27 09:24:34;;;;;;;3.60;1.97;;;;;;;;;;5105016;28;20455;-79
2023/08/27 09:27:01;;;;;;;3.50;2.23;;;;;;;;;;5104138;28;20444;-78
2023/08/27 09:29:28;;;;;;;4.23;2.30;;;;;;;;;;5106253;28;20464;-78
2023/08/27 09:31:57;;;;;;;3.50;2.23;;;;;;;;;;5103399;28;20443;-79
2023/08/27 09:34:25;;;;;;;4.10;1.90;;;;;;;;;;5105377;28;20439;-79
2023/08/27 09:36:53;;;;;;;4.90;1.67;;;;;;;;;;5103525;28;20448;-79
2023/08/27 09:39:20;;;;;;;3.67;2.10;;;;;;;;;;5103282;28;20512;-79
2023/08/27 09:41:49;;;;;;;6.60;2.10;;;;;;;;;;5106275;28;20947;-79
2023/08/27 09:44:17;;;;;;;7.80;3.57;;;;;;;;;;5102886;28;20498;-79
2023/08/27 09:46:45;;;;;;;3.73;1.70;;;;;;;;;;5103653;28;20455;-79
2023/08/27 09:49:13;;;;;;;5.33;1.73;;;;;;;;;;5102709;28;20782;-78
2023/08/27 09:51:41;;;;;;;4.10;1.80;;;;;;;;;;5106286;28;20540;-79
2023/08/27 09:54:15;;;;;;;3.10;1.83;;;;;;;;;;5102246;28;20440;-78
2023/08/27 09:56:45;;;;;;;3.47;1.57;;;;;;;;;;5098204;28;20462;-78
2023/08/27 09:59:18;;;;;;;5.17;1.70;;;;;;;;;;5099842;28;20735;-78
2023/08/27 10:01:48;;;;;;;2.70;1.80;;;;;;;;;;5101249;28;20501;-78
2023/08/27 10:04:17;;;;;;;4.20;2.40;;;;;;;;;;5101720;28;20514;-78
2023/08/27 10:06:44;;;;;;;3.40;1.80;;;;;;;;;;5101032;28;20460;-78
2023/08/27 10:09:12;;;;;;;3.40;1.50;;;;;;;;;;5098911;28;20459;-78
2023/08/27 10:11:42;;;;;;;6.13;3.80;;;;;;;;;;5102921;28;20509;-79
2023/08/27 10:14:10;;;;;;;4.50;2.60;;;;;;;;;;5099349;28;20485;-78
2023/08/27 10:16:40;;;;;;;3.20;1.77;;;;;;;;;;5102452;28;20443;-78
2023/08/27 10:19:08;;;;;;;4.67;2.40;;;;;;;;;;5102062;28;20475;-79
2023/08/27 10:21:35;;;;;;;3.20;1.67;;;;;;;;;;5101082;28;20914;-79
2023/08/27 10:24:03;;;;;;;4.83;1.67;;;;;;;;;;5101841;28;20471;-78
2023/08/27 10:26:36;;;;;;;3.80;1.33;;;;;;;;;;5102658;28;20451;-79
2023/08/27 10:29:06;;;;;;;4.17;1.93;;;;;;;;;;5103379;28;20455;-78
2023/08/27 10:31:34;;;;;;;3.33;1.77;;;;;;;;;;5101073;28;20526;-78
2023/08/27 10:34:04;;;;;;;6.73;2.63;;;;;;;;;;5104121;28;20432;-78
2023/08/27 10:36:34;;;;;;;3.60;2.00;;;;;;;;;;5104719;28;20456;-79
2023/08/27 10:39:04;;;;;;;7.27;2.83;;;;;;;;;;5102491;28;20766;-79
2023/08/27 10:41:35;;;;;;;5.90;2.43;;;;;;;;;;5100681;28;20533;-79
2023/08/27 10:44:03;;;;;;;5.03;2.47;;;;;;;;;;5099908;28;20506;-79
2023/08/27 10:46:32;;;;;;;3.63;2.10;;;;;;;;;;5105304;28;20462;-80
2023/08/27 10:49:00;;;;;;;5.60;2.53;;;;;;;;;;5104845;28;20463;-77
2023/08/27 10:51:34;;;;;;;4.50;1.77;;;;;;;;;;5104760;28;20547;-78
2023/08/27 10:54:04;;;;;;;3.90;2.30;;;;;;;;;;5102173;28;20439;-78
2023/08/27 10:56:37;;;;;;;4.57;2.03;;;;;;;;;;5100537;28;20507;-79
2023/08/27 10:59:10;;;;;;;4.23;1.97;;;;;;;;;;5098630;28;20469;-78
2023/08/27 11:01:38;;;;;;;6.80;2.50;;;;;;;;;;5094989;28;20487;-78
2023/08/27 11:04:06;;;;;;;5.47;3.27;;;;;;;;;;5097901;28;20466;-78
2023/08/27 11:06:48;;;;;;;6.33;3.70;;;;;;;;;;5096234;28;20883;-78
2023/08/27 11:09:23;;;;;;;3.80;2.10;;;;;;;;;;5092589;28;20570;-79
2023/08/27 11:11:52;;;;;;;3.93;1.97;;;;;;;;;;5097843;28;20435;-78
2023/08/27 11:14:21;;;;;;;5.40;2.50;;;;;;;;;;5095477;28;20516;-78
2023/08/27 11:16:49;;;;;;;4.87;2.70;;;;;;;;;;5096092;28;20591;-78
2023/08/27 11:19:25;;;;;;;4.43;2.20;;;;;;;;;;5094252;28;20570;-78
2023/08/27 11:21:53;;;;;;;4.07;2.93;;;;;;;;;;5095009;28;20522;-77
2023/08/27 11:24:24;;;;;;;4.77;3.20;;;;;;;;;;5095146;28;20443;-78
2023/08/27 11:26:52;;;;;;;4.43;2.37;;;;;;;;;;5097418;28;20462;-78
2023/08/27 11:29:22;;;;;;;5.20;3.00;;;;;;;;;;5093779;28;20448;-79
2023/08/27 11:31:50;;;;;;;5.10;2.37;;;;;;;;;;5096459;28;20477;-79
2023/08/27 11:34:18;;;;;;;3.83;2.10;;;;;;;;;;5094045;28;20462;-80
2023/08/27 11:36:47;;;;;;;4.63;2.63;;;;;;;;;;5097432;28;20504;-79
2023/08/27 11:39:15;;;;;;;5.43;2.50;;;;;;;;;;5098260;28;20452;-78
2023/08/27 11:41:45;;;;;;;6.97;3.17;;;;;;;;;;5098469;28;20471;-79
2023/08/27 11:44:16;;;;;;;9.63;3.30;;;;;;;;;;5076106;28;20488;-78
2023/08/27 11:46:51;;;;;;;19.37;9.17;;;;;;;;;;5078718;28;20494;-80
2023/08/27 11:49:28;;;;;;;3.67;2.13;;;;;;;;;;5077373;28;20676;-80
2023/08/27 11:51:57;;;;;;;5.20;3.53;;;;;;;;;;5087947;28;20476;-79
2023/08/27 11:54:28;;;;;;;5.00;2.13;;;;;;;;;;5076212;28;20452;-78
2023/08/27 11:56:57;;;;;;;5.40;3.43;;;;;;;;;;5074441;28;20448;-79
2023/08/27 11:59:27;;;;;;;7.23;4.23;;;;;;;;;;5075761;28;20448;-78
2023/08/27 12:01:55;;;;;;;6.20;3.97;;;;;;;;;;5075745;28;20520;-78
2023/08/27 12:04:23;;;;;;;3.80;3.03;;;;;;;;;;5072069;28;20665;-78
2023/08/27 12:06:54;;;;;;;3.80;2.67;;;;;;;;;;5076472;28;20432;-78
2023/08/27 12:09:26;;;;;;;4.80;2.97;;;;;;;;;;5073866;28;21072;-77
2023/08/27 12:11:54;;;;;;;4.40;2.67;;;;;;;;;;5077905;28;20520;-79
2023/08/27 12:14:28;;;;;;;4.80;2.70;;;;;;;;;;5073959;28;20452;-78
2023/08/27 12:16:56;;;;;;;3.67;2.40;;;;;;;;;;5074080;28;20447;-78
2023/08/27 12:19:24;;;;;;;3.70;2.60;;;;;;;;;;5072045;28;20628;-79
2023/08/27 12:21:54;;;;;;;5.50;2.50;;;;;;;;;;5076190;28;20602;-78
2023/08/27 12:24:31;;;;;;;6.10;2.80;;;;;;;;;;5073859;28;20448;-78
2023/08/27 12:27:01;;;;;;;5.83;3.50;;;;;;;;;;5078477;28;20436;-78
2023/08/27 12:29:38;;;;;;;3.50;2.10;;;;;;;;;;5076340;28;20722;-77
2023/08/27 12:32:09;;;;;;;4.27;2.33;;;;;;;;;;5077531;28;20444;-77
2023/08/27 12:34:39;;;;;;;6.03;2.17;;;;;;;;;;5074037;28;20465;-77
2023/08/27 12:37:07;;;;;;;4.53;2.00;;;;;;;;;;5072604;28;20510;-76
2023/08/27 12:39:37;;;;;;;4.97;2.63;;;;;;;;;;5073284;28;20487;-78
2023/08/27 12:42:05;;;;;;;2.63;1.33;;;;;;;;;;5077672;28;20507;-79
2023/08/27 12:44:34;;;;;;;3.53;1.77;;;;;;;;;;5097543;28;20499;-77
2023/08/27 12:47:02;;;;;;;3.03;1.50;;;;;;;;;;5100276;28;20468;-79
2023/08/27 12:49:30;;;;;;;3.13;1.50;;;;;;;;;;5095678;28;20467;-80
2023/08/27 12:51:58;;;;;;;2.80;1.50;;;;;;;;;;5098108;28;20462;-79
2023/08/27 12:54:26;;;;;;;3.17;1.00;;;;;;;;;;5099041;28;20473;-78
2023/08/27 12:56:55;;;;;;;3.10;1.90;;;;;;;;;;5078816;28;20690;-77
2023/08/27 12:59:24;;;;;;;3.17;1.30;;;;;;;;;;5084185;28;21109;-78
2023/08/27 13:01:53;;;;;;;5.00;1.40;;;;;;;;;;5097878;28;20487;-77
2023/08/27 13:04:22;;;;;;;3.50;1.73;;;;;;;;;;5097435;28;20883;-78
2023/08/27 13:06:50;;;;;;;4.20;1.80;;;;;;;;;;5094706;28;20493;-76
2023/08/27 13:09:17;;;;;;;4.93;1.30;;;;;;;;;;5097393;28;20482;-78
2023/08/27 13:11:46;;;;;;;3.40;1.60;;;;;;;;;;5093619;28;20435;-79
2023/08/27 13:14:13;;;;;;;5.33;1.70;;;;;;;;;;5095595;28;20648;-79
2023/08/27 13:16:42;;;;;;;3.10;1.50;;;;;;;;;;5093768;28;20694;-78
2023/08/27 13:19:11;;;;;;;4.77;1.40;;;;;;;;;;5098070;28;20524;-79
2023/08/27 13:21:40;;;;;;;3.40;1.17;;;;;;;;;;5096093;28;20459;-79
2023/08/27 13:24:07;;;;;;;2.80;1.07;;;;;;;;;;5098165;28;20476;-78
2023/08/27 13:26:35;;;;;;;3.10;1.20;;;;;;;;;;5101356;28;20464;-78
2023/08/27 13:29:03;;;;;;;2.83;0.90;;;;;;;;;;5096834;28;20474;-79
2023/08/27 13:31:31;;;;;;;2.10;0.97;;;;;;;;;;5097132;28;20462;-79
2023/08/27 13:33:58;;;;;;;3.47;0.93;;;;;;;;;;5094954;28;20559;-78
2023/08/27 13:36:27;;;;;;;2.30;0.90;;;;;;;;;;5089966;28;20516;-78
2023/08/27 13:38:55;;;;;;;2.50;0.80;;;;;;;;;;5098206;28;20530;-78
2023/08/27 13:41:23;;;;;;;3.00;1.10;;;;;;;;;;5097073;28;20436;-77
2023/08/27 13:43:50;;;;;;;2.80;0.73;;;;;;;;;;5093345;28;20548;-79
2023/08/27 13:46:18;;;;;;;2.60;1.10;;;;;;;;;;5095179;28;20440;-78
2023/08/27 13:48:46;;;;;;;5.30;1.20;;;;;;;;;;5095749;28;20731;-79
2023/08/27 13:51:15;;;;;;;2.23;0.90;;;;;;;;;;5096893;28;20843;-78
2023/08/27 13:53:44;;;;;;;2.10;0.90;;;;;;;;;;5094369;28;20440;-80
2023/08/27 13:56:12;;;;;;;2.20;0.80;;;;;;;;;;5101081;28;20490;-79
2023/08/27 13:58:41;;;;;;;3.30;0.97;;;;;;;;;;5100355;28;20455;-80
2023/08/27 14:01:08;;;;;;;2.10;0.80;;;;;;;;;;5104091;28;20558;-80
2023/08/27 14:03:35;;;;;;;3.10;1.10;;;;;;;;;;5099811;28;20494;-79
2023/08/27 14:06:05;;;;;;;3.20;1.00;;;;;;;;;;5101118;28;20467;-77
2023/08/27 14:08:32;;;;;;;3.10;0.90;;;;;;;;;;5096250;28;20458;-77
2023/08/27 14:11:03;;;;;;;4.63;1.47;;;;;;;;;;5098121;28;20443;-79
2023/08/27 14:13:31;;;;;;;3.10;1.23;;;;;;;;;;5095992;28;20487;-79
2023/08/27 14:15:59;;;;;;;2.83;0.80;;;;;;;;;;5096306;28;20467;-79
2023/08/27 14:18:27;;;;;;;2.67;1.07;;;;;;;;;;5095368;28;20467;-79
2023/08/27 14:20:54;;;;;;;4.97;3.40;;;;;;;;;;5096029;28;20455;-79
2023/08/27 14:23:23;;;;;;;2.03;0.70;;;;;;;;;;5099342;28;20744;-81
2023/08/27 14:25:50;;;;;;;2.73;0.80;;;;;;;;;;5095112;28;20483;-79
2023/08/27 14:28:20;;;;;;;2.20;0.90;;;;;;;;;;5096301;28;20857;-79
2023/08/27 14:30:47;;;;;;;2.40;0.90;;;;;;;;;;5092998;28;20460;-78
2023/08/27 14:33:15;;;;;;;2.50;1.27;;;;;;;;;;5092037;28;21074;-78
2023/08/27 14:35:42;;;;;;;2.10;0.80;;;;;;;;;;5094034;28;20526;-77
2023/08/27 14:38:10;;;;;;;3.33;1.80;;;;;;;;;;5094413;28;20478;-78
2023/08/27 14:40:37;;;;;;;2.93;1.00;;;;;;;;;;5094453;28;20478;-80
2023/08/27 14:43:06;;;;;;;2.67;0.83;;;;;;;;;;5095643;28;20483;-79
2023/08/27 14:45:35;;;;;;;2.20;0.80;;;;;;;;;;5099344;28;20550;-80
2023/08/27 14:48:04;;;;;;;3.00;1.00;;;;;;;;;;5096978;28;20775;-79
2023/08/27 14:50:32;;;;;;;2.53;1.10;;;;;;;;;;5081583;28;20443;-80